Time;durP1;ratioP1;P1;durP2;ratioP2;P2;SDS_P1;SDS_P2;PMS_P1;PMS_P2;Temp;Humidity;BMP_temperature;BMP_pressure;BME280_temperature;BME280_humidity;BME280_pressure;Samples;Min_cycle;Max_cycle;Signal;HPM_P1;HPM_P2
2022/10/10 00:00:10;;;;;;;5.57;2.10;;;8.20;99.90;;;;;;4222129;28;20473;-79
2022/10/10 00:02:12;;;;;;;3.43;1.97;;;8.20;99.90;;;;;;4220185;28;20437;-79
2022/10/10 00:04:15;;;;;;;3.53;2.00;;;8.10;99.90;;;;;;4203591;28;20520;-79
2022/10/10 00:06:17;;;;;;;2.90;1.70;;;8.10;99.90;;;;;;4225023;28;20454;-78
2022/10/10 00:08:19;;;;;;;5.60;2.17;;;8.10;99.90;;;;;;4211796;28;20478;-79
2022/10/10 00:10:21;;;;;;;3.83;1.93;;;8.10;99.90;;;;;;4232577;28;20470;-79
2022/10/10 00:12:23;;;;;;;3.67;2.00;;;8.10;99.90;;;;;;4233031;28;20552;-78
2022/10/10 00:14:25;;;;;;;4.27;1.53;;;8.00;99.90;;;;;;4227084;28;20461;-78
2022/10/10 00:16:27;;;;;;;4.90;1.90;;;8.00;99.90;;;;;;4229187;28;20557;-77
2022/10/10 00:18:30;;;;;;;5.70;1.90;;;8.00;99.90;;;;;;4229478;28;20524;-77
2022/10/10 00:20:33;;;;;;;3.17;2.07;;;7.90;99.90;;;;;;4222196;28;20470;-78
2022/10/10 00:22:35;;;;;;;3.50;1.90;;;7.90;99.90;;;;;;4216843;28;20438;-78
2022/10/10 00:24:37;;;;;;;5.33;2.07;;;7.90;99.90;;;;;;4219599;28;21181;-78
2022/10/10 00:26:39;;;;;;;3.70;1.70;;;7.90;99.90;;;;;;4218535;28;20481;-78
2022/10/10 00:28:41;;;;;;;3.13;1.80;;;7.90;99.90;;;;;;4223198;28;20552;-78
2022/10/10 00:30:43;;;;;;;3.07;1.93;;;7.80;99.90;;;;;;4215670;28;20508;-79
2022/10/10 00:32:45;;;;;;;6.90;1.97;;;7.80;99.90;;;;;;4220742;28;21124;-78
2022/10/10 00:34:47;;;;;;;3.13;1.83;;;7.80;99.90;;;;;;4218760;28;20542;-77
2022/10/10 00:36:50;;;;;;;4.77;1.90;;;7.80;99.90;;;;;;4219215;28;21032;-78
2022/10/10 00:38:52;;;;;;;2.90;2.07;;;7.80;99.90;;;;;;4218812;28;20468;-78
2022/10/10 00:40:56;;;;;;;3.83;2.00;;;7.70;99.90;;;;;;4221568;28;20525;-77
2022/10/10 00:42:57;;;;;;;2.87;1.77;;;7.70;99.90;;;;;;4211911;28;20463;-78
2022/10/10 00:45:35;;;;;;;3.23;1.70;;;7.70;99.90;;;;;;4216093;28;21162;-78
2022/10/10 00:47:37;;;;;;;2.93;1.70;;;7.70;99.90;;;;;;4220040;28;20538;-78
2022/10/10 00:49:43;;;;;;;3.40;1.77;;;7.60;99.90;;;;;;4224890;28;20928;-79
2022/10/10 00:51:46;;;;;;;3.87;2.03;;;7.60;99.90;;;;;;4221683;28;20512;-76
2022/10/10 00:53:53;;;;;;;4.53;2.33;;;7.60;99.90;;;;;;4220668;28;20454;-78
2022/10/10 00:55:56;;;;;;;3.50;2.03;;;7.50;99.90;;;;;;4216791;28;20469;-78
2022/10/10 00:57:58;;;;;;;6.90;2.37;;;7.50;99.90;;;;;;4235984;27;20535;-77
2022/10/10 01:00:01;;;;;;;4.80;1.87;;;7.50;99.90;;;;;;4222466;28;20557;-77
2022/10/10 01:02:03;;;;;;;4.30;1.87;;;7.40;99.90;;;;;;4216541;28;20464;-78
2022/10/10 01:04:05;;;;;;;4.87;1.83;;;7.50;99.90;;;;;;4219320;28;20484;-78
2022/10/10 01:06:07;;;;;;;4.37;1.93;;;7.40;99.90;;;;;;4214408;28;20460;-78
2022/10/10 01:08:09;;;;;;;3.73;1.97;;;7.40;99.90;;;;;;4217888;28;20905;-78
2022/10/10 01:10:17;;;;;;;4.47;1.97;;;7.40;99.90;;;;;;4220031;28;20507;-77
2022/10/10 01:12:24;;;;;;;4.10;2.10;;;7.40;99.90;;;;;;4213478;28;20488;-77
2022/10/10 01:14:34;;;;;;;2.30;1.83;;;7.30;99.90;;;;;;4217172;28;20552;-77
2022/10/10 01:16:45;;;;;;;4.83;2.17;;;7.70;99.90;;;;;;4219128;28;20535;-77
2022/10/10 01:18:56;;;;;;;3.73;2.00;;;7.30;99.90;;;;;;4220351;28;20462;-78
2022/10/10 01:21:13;;;;;;;3.63;2.00;;;7.30;99.90;;;;;;4216867;28;20583;-77
2022/10/10 01:23:51;;;;;;;5.30;1.93;;;7.30;99.90;;;;;;4223167;28;20444;-77
2022/10/10 01:26:11;;;;;;;4.67;2.47;;;7.30;99.90;;;;;;4220712;28;20536;-80
2022/10/10 01:28:26;;;;;;;3.87;1.80;;;7.30;99.90;;;;;;4226941;28;20543;-77
2022/10/10 01:30:29;;;;;;;3.03;2.20;;;7.20;99.90;;;;;;4222094;28;20563;-79
2022/10/10 01:32:36;;;;;;;3.37;1.90;;;7.20;99.90;;;;;;4227003;28;20473;-77
2022/10/10 01:34:47;;;;;;;3.37;1.93;;;7.20;99.90;;;;;;4217919;28;20462;-78
2022/10/10 01:36:58;;;;;;;5.13;2.20;;;7.20;99.90;;;;;;4216041;28;20473;-78
2022/10/10 01:39:06;;;;;;;3.80;1.83;;;7.20;99.90;;;;;;4220151;28;20465;-80
2022/10/10 01:41:13;;;;;;;5.07;2.30;;;7.10;99.90;;;;;;4215847;28;20472;-78
2022/10/10 01:43:16;;;;;;;3.17;1.90;;;7.10;99.90;;;;;;4215660;28;20548;-79
2022/10/10 01:45:20;;;;;;;3.53;1.63;;;7.10;99.90;;;;;;4219445;28;20446;-80
2022/10/10 01:47:22;;;;;;;3.40;1.80;;;7.10;99.90;;;;;;4220384;28;20483;-77
2022/10/10 01:49:29;;;;;;;2.70;1.77;;;7.10;99.90;;;;;;4217018;28;20483;-79
2022/10/10 01:51:51;;;;;;;4.00;2.10;;;7.00;99.90;;;;;;4221557;28;20491;-79
2022/10/10 01:54:04;;;;;;;2.40;1.80;;;7.10;99.90;;;;;;4214823;28;20483;-78
2022/10/10 01:56:13;;;;;;;4.10;1.97;;;7.00;99.90;;;;;;4218083;28;20888;-77
2022/10/10 01:58:37;;;;;;;2.93;2.00;;;7.00;99.90;;;;;;4221564;28;20819;-80
2022/10/10 02:00:48;;;;;;;3.33;2.00;;;7.00;99.90;;;;;;4219933;28;21030;-78
2022/10/10 02:02:57;;;;;;;4.00;2.00;;;7.00;99.90;;;;;;4221529;28;20477;-76
2022/10/10 02:05:04;;;;;;;4.47;2.10;;;6.90;99.90;;;;;;4221744;28;20996;-79
2022/10/10 02:07:10;;;;;;;3.20;2.10;;;6.90;99.90;;;;;;4223182;28;20457;-78
2022/10/10 02:09:17;;;;;;;5.43;2.57;;;6.90;99.90;;;;;;4228572;28;20470;-76
2022/10/10 02:11:19;;;;;;;5.07;2.20;;;6.90;99.90;;;;;;4221805;28;20472;-77
2022/10/10 02:13:23;;;;;;;4.53;2.00;;;6.90;99.90;;;;;;4217335;28;20567;-79
2022/10/10 02:15:31;;;;;;;3.13;2.13;;;6.90;99.90;;;;;;4219844;28;20455;-78
2022/10/10 02:17:36;;;;;;;3.43;2.00;;;6.90;99.90;;;;;;4218456;28;20478;-77
2022/10/10 02:19:42;;;;;;;3.73;2.40;;;6.90;99.90;;;;;;4215676;28;20508;-78
2022/10/10 02:21:46;;;;;;;3.93;2.30;;;6.90;99.90;;;;;;4229560;28;20452;-77
2022/10/10 02:23:52;;;;;;;3.70;1.97;;;6.90;99.90;;;;;;4235646;28;20440;-79
2022/10/10 02:25:56;;;;;;;4.57;2.27;;;6.80;99.90;;;;;;4234242;28;20480;-76
2022/10/10 02:28:08;;;;;;;5.10;2.67;;;6.90;99.90;;;;;;4245148;28;20427;-76
2022/10/10 02:30:11;;;;;;;4.60;2.67;;;6.80;99.90;;;;;;4235407;28;20495;-78
2022/10/10 02:32:20;;;;;;;4.17;2.30;;;6.80;99.90;;;;;;4222494;28;20453;-77
2022/10/10 02:34:28;;;;;;;3.30;2.33;;;6.80;99.90;;;;;;4223609;28;20490;-77
2022/10/10 02:36:31;;;;;;;3.40;1.90;;;6.80;99.90;;;;;;4224258;28;21021;-77
2022/10/10 02:38:33;;;;;;;4.03;2.30;;;6.80;99.90;;;;;;4220930;28;20459;-77
2022/10/10 02:40:36;;;;;;;4.33;2.10;;;6.80;99.90;;;;;;4222219;28;20519;-77
2022/10/10 02:42:40;;;;;;;3.47;2.00;;;6.80;99.90;;;;;;4224166;28;20468;-78
2022/10/10 02:44:42;;;;;;;5.27;2.30;;;6.80;99.90;;;;;;4222476;28;20475;-78
2022/10/10 02:46:44;;;;;;;3.57;2.10;;;6.90;99.90;;;;;;4223495;28;20479;-78
2022/10/10 02:48:46;;;;;;;4.03;2.33;;;6.80;99.90;;;;;;4218258;28;20466;-77
2022/10/10 02:50:49;;;;;;;4.77;2.13;;;6.80;99.90;;;;;;4214355;28;21009;-77
2022/10/10 02:52:51;;;;;;;4.43;2.10;;;6.80;99.90;;;;;;4218948;28;21052;-78
2022/10/10 02:54:53;;;;;;;3.50;2.07;;;6.80;99.90;;;;;;4220866;28;20496;-77
2022/10/10 02:56:55;;;;;;;4.90;2.00;;;6.80;99.90;;;;;;4218383;28;20520;-78
2022/10/10 02:58:57;;;;;;;3.77;1.97;;;6.70;99.90;;;;;;4219345;28;20450;-77
2022/10/10 03:00:59;;;;;;;2.53;1.70;;;6.70;99.90;;;;;;4222684;28;20820;-77
2022/10/10 03:03:01;;;;;;;2.23;1.73;;;6.70;99.90;;;;;;4222679;28;21032;-77
2022/10/10 03:05:03;;;;;;;3.50;2.20;;;6.70;99.90;;;;;;4221921;28;20910;-76
2022/10/10 03:07:06;;;;;;;3.67;2.10;;;6.70;99.90;;;;;;4222004;28;20560;-77
2022/10/10 03:09:08;;;;;;;4.13;2.20;;;6.60;99.90;;;;;;4224801;28;20463;-76
2022/10/10 03:11:10;;;;;;;4.70;1.93;;;6.70;99.90;;;;;;4231087;28;20455;-77
2022/10/10 03:13:12;;;;;;;4.60;2.20;;;6.70;99.90;;;;;;4224749;28;20883;-76
2022/10/10 03:15:14;;;;;;;3.77;2.10;;;6.70;99.90;;;;;;4225411;28;20840;-79
2022/10/10 03:17:15;;;;;;;3.67;2.10;;;6.70;99.90;;;;;;4226572;28;20452;-78
2022/10/10 03:19:17;;;;;;;3.63;2.13;;;6.70;99.90;;;;;;4232381;28;20506;-77
2022/10/10 03:21:19;;;;;;;3.47;2.20;;;6.70;99.90;;;;;;4223759;28;21392;-77
2022/10/10 03:23:23;;;;;;;3.43;2.07;;;6.70;99.90;;;;;;4231807;28;20562;-77
2022/10/10 03:25:25;;;;;;;4.23;1.97;;;6.70;99.90;;;;;;4230017;28;20462;-78
2022/10/10 03:27:27;;;;;;;5.90;2.60;;;6.70;99.90;;;;;;4229837;28;20497;-78
2022/10/10 03:29:29;;;;;;;4.90;2.20;;;6.70;99.90;;;;;;4225854;28;21002;-77
2022/10/10 03:31:31;;;;;;;6.87;2.40;;;6.70;99.90;;;;;;4217959;28;20963;-77
2022/10/10 03:33:34;;;;;;;2.97;2.00;;;6.70;99.90;;;;;;4223613;28;20484;-78
2022/10/10 03:35:36;;;;;;;3.27;2.00;;;6.70;99.90;;;;;;4224769;28;20504;-78
2022/10/10 03:37:38;;;;;;;3.13;2.13;;;6.80;99.90;;;;;;4223615;28;20515;-78
2022/10/10 03:39:41;;;;;;;3.60;2.20;;;6.70;99.90;;;;;;4218189;28;20477;-77
2022/10/10 03:41:43;;;;;;;3.67;2.20;;;6.70;99.90;;;;;;4228070;28;20440;-76
2022/10/10 03:43:45;;;;;;;5.10;2.03;;;6.80;99.90;;;;;;4224647;28;20463;-78
2022/10/10 03:45:47;;;;;;;4.40;2.10;;;6.80;99.90;;;;;;4232292;28;20552;-78
2022/10/10 03:47:50;;;;;;;3.07;2.00;;;6.80;99.90;;;;;;4232599;28;20455;-78
2022/10/10 03:49:52;;;;;;;3.37;2.20;;;6.80;99.90;;;;;;4226826;28;20572;-77
2022/10/10 03:51:54;;;;;;;4.10;2.10;;;6.80;99.90;;;;;;4223899;28;20460;-77
2022/10/10 03:53:56;;;;;;;5.63;2.43;;;6.80;99.90;;;;;;4220966;28;21059;-77
2022/10/10 03:55:59;;;;;;;4.03;2.20;;;6.80;99.90;;;;;;4217602;28;20570;-77
2022/10/10 03:58:01;;;;;;;4.33;2.57;;;6.90;99.90;;;;;;4222598;28;20584;-80
2022/10/10 04:00:03;;;;;;;4.73;2.13;;;6.90;99.90;;;;;;4222772;28;20469;-77
2022/10/10 04:02:05;;;;;;;4.07;2.30;;;6.90;99.90;;;;;;4218712;28;20454;-78
2022/10/10 04:04:07;;;;;;;3.63;2.37;;;6.90;99.90;;;;;;4222061;28;20462;-78
2022/10/10 04:06:09;;;;;;;4.70;2.07;;;6.90;99.90;;;;;;4226884;28;20490;-78
2022/10/10 04:08:11;;;;;;;3.73;2.10;;;6.90;99.90;;;;;;4226964;28;20472;-78
2022/10/10 04:10:13;;;;;;;4.47;2.10;;;6.90;99.90;;;;;;4220865;28;20481;-79
2022/10/10 04:12:16;;;;;;;3.63;1.83;;;7.00;99.90;;;;;;4219347;28;20444;-78
2022/10/10 04:14:18;;;;;;;3.83;2.37;;;6.90;99.90;;;;;;4219724;28;20484;-79
2022/10/10 04:16:19;;;;;;;2.77;1.80;;;6.90;99.90;;;;;;4213458;28;20576;-80
2022/10/10 04:18:22;;;;;;;3.50;1.93;;;6.80;99.90;;;;;;4217174;28;20492;-79
2022/10/10 04:20:24;;;;;;;4.33;2.20;;;6.80;99.90;;;;;;4221212;28;20504;-78
2022/10/10 04:22:26;;;;;;;3.53;2.20;;;6.80;99.90;;;;;;4220656;28;20548;-77
2022/10/10 04:24:28;;;;;;;4.10;2.10;;;6.80;99.90;;;;;;4224601;28;20547;-78
2022/10/10 04:26:30;;;;;;;3.90;2.10;;;6.80;99.90;;;;;;4217431;28;20488;-78
2022/10/10 04:28:33;;;;;;;3.50;1.87;;;6.80;99.90;;;;;;4220151;28;20477;-77
2022/10/10 04:30:35;;;;;;;5.07;2.30;;;6.80;99.90;;;;;;4218323;28;20485;-79
2022/10/10 04:32:38;;;;;;;3.37;1.97;;;6.80;99.90;;;;;;4218246;28;20457;-78
2022/10/10 04:34:39;;;;;;;3.10;2.07;;;6.80;99.90;;;;;;4221162;28;20487;-78
2022/10/10 04:36:41;;;;;;;3.93;2.13;;;6.80;99.90;;;;;;4220720;28;21164;-78
2022/10/10 04:38:43;;;;;;;3.23;2.13;;;6.80;99.90;;;;;;4218723;28;20534;-76
2022/10/10 04:40:47;;;;;;;4.00;2.20;;;6.80;99.90;;;;;;4217110;28;20567;-77
2022/10/10 04:42:49;;;;;;;4.27;2.20;;;7.30;99.90;;;;;;4225560;28;21060;-78
2022/10/10 04:44:52;;;;;;;3.97;2.17;;;6.80;99.90;;;;;;4221769;28;20479;-77
2022/10/10 04:46:54;;;;;;;5.27;2.40;;;6.80;99.90;;;;;;4220600;28;20535;-79
2022/10/10 04:48:56;;;;;;;4.43;2.33;;;6.80;99.90;;;;;;4221985;28;20930;-79
2022/10/10 04:50:59;;;;;;;4.10;2.20;;;6.70;99.90;;;;;;4221072;28;20567;-79
2022/10/10 04:53:01;;;;;;;4.93;2.17;;;6.70;99.90;;;;;;4224043;28;20462;-78
2022/10/10 04:55:02;;;;;;;3.23;1.97;;;6.70;99.90;;;;;;4214168;28;20452;-77
2022/10/10 04:57:05;;;;;;;4.17;2.37;;;6.70;99.90;;;;;;4219636;28;20494;-78
2022/10/10 04:59:07;;;;;;;3.10;2.13;;;6.70;99.90;;;;;;4222806;28;20888;-76
2022/10/10 05:01:10;;;;;;;5.20;2.43;;;6.70;99.90;;;;;;4220827;28;20462;-74
2022/10/10 05:03:12;;;;;;;4.20;2.50;;;6.70;99.90;;;;;;4218251;28;20452;-75
2022/10/10 05:05:14;;;;;;;4.63;2.20;;;6.70;99.90;;;;;;4219993;28;20459;-76
2022/10/10 05:07:16;;;;;;;4.80;2.23;;;6.70;99.90;;;;;;4215612;28;20476;-76
2022/10/10 05:09:18;;;;;;;4.03;2.00;;;6.70;99.90;;;;;;4218520;28;21068;-77
2022/10/10 05:11:20;;;;;;;2.83;2.03;;;6.70;99.90;;;;;;4222130;28;20491;-77
2022/10/10 05:13:22;;;;;;;3.13;1.97;;;6.70;99.90;;;;;;4220449;28;20563;-77
2022/10/10 05:15:23;;;;;;;4.40;2.50;;;6.70;99.90;;;;;;4222919;28;20474;-78
2022/10/10 05:17:27;;;;;;;3.60;2.23;;;6.70;99.90;;;;;;4226074;28;21058;-78
2022/10/10 05:19:28;;;;;;;3.97;2.17;;;6.60;99.90;;;;;;4231361;28;20468;-77
2022/10/10 05:21:30;;;;;;;3.70;2.00;;;6.70;99.90;;;;;;4232006;28;20453;-75
2022/10/10 05:23:32;;;;;;;3.77;1.90;;;6.70;99.90;;;;;;4226021;28;20534;-77
2022/10/10 05:25:34;;;;;;;3.87;2.17;;;6.60;99.90;;;;;;4223962;28;20443;-77
2022/10/10 05:27:36;;;;;;;2.73;1.87;;;6.60;99.90;;;;;;4223725;28;20455;-78
2022/10/10 05:29:38;;;;;;;3.73;2.33;;;6.60;99.90;;;;;;4217780;28;20560;-77
2022/10/10 05:31:40;;;;;;;4.63;2.20;;;6.60;99.90;;;;;;4222425;27;20956;-78
2022/10/10 05:33:43;;;;;;;5.30;2.77;;;6.70;99.90;;;;;;4215178;28;20512;-75
2022/10/10 05:35:45;;;;;;;3.53;2.20;;;6.60;99.90;;;;;;4224908;27;20821;-78
2022/10/10 05:37:47;;;;;;;4.40;2.10;;;6.60;99.90;;;;;;4224283;28;20521;-79
2022/10/10 05:39:49;;;;;;;4.30;2.30;;;6.60;99.90;;;;;;4220897;28;20480;-79
2022/10/10 05:41:51;;;;;;;4.10;2.50;;;6.60;99.90;;;;;;4224874;28;20498;-79
2022/10/10 05:43:53;;;;;;;5.20;2.17;;;6.60;99.90;;;;;;4222912;28;20948;-79
2022/10/10 05:45:55;;;;;;;3.53;1.90;;;6.60;99.90;;;;;;4222094;28;20460;-79
2022/10/10 05:47:57;;;;;;;5.67;2.60;;;6.60;99.90;;;;;;4218409;28;20453;-79
2022/10/10 05:50:00;;;;;;;3.43;2.20;;;6.60;99.90;;;;;;4224223;28;21036;-78
2022/10/10 05:52:02;;;;;;;5.07;2.03;;;6.60;99.90;;;;;;4217913;28;20931;-78
2022/10/10 05:54:05;;;;;;;6.00;2.30;;;6.60;99.90;;;;;;4220360;28;20823;-79
2022/10/10 05:56:07;;;;;;;3.63;2.13;;;6.60;99.90;;;;;;4225577;28;20864;-78
2022/10/10 05:58:09;;;;;;;5.13;2.60;;;6.60;99.90;;;;;;4214122;28;20966;-78
2022/10/10 06:00:12;;;;;;;4.73;1.90;;;6.60;99.90;;;;;;4225596;28;20473;-80
2022/10/10 06:02:14;;;;;;;5.40;2.37;;;6.70;99.90;;;;;;4219547;28;20534;-78
2022/10/10 06:04:16;;;;;;;5.17;2.60;;;6.70;99.90;;;;;;4218736;28;20444;-79
2022/10/10 06:06:20;;;;;;;3.90;2.33;;;6.70;99.90;;;;;;4223269;28;20479;-78
2022/10/10 06:08:21;;;;;;;4.67;2.17;;;6.70;99.90;;;;;;4220994;28;20475;-80
2022/10/10 06:10:23;;;;;;;5.27;2.30;;;6.80;99.90;;;;;;4214047;28;20523;-77
2022/10/10 06:12:25;;;;;;;3.70;2.33;;;6.80;99.90;;;;;;4221673;28;20977;-79
2022/10/10 06:14:27;;;;;;;3.17;2.20;;;6.80;99.90;;;;;;4220267;28;20553;-78
2022/10/10 06:16:29;;;;;;;4.23;2.17;;;6.80;99.90;;;;;;4225591;28;20468;-79
2022/10/10 06:18:33;;;;;;;4.60;2.27;;;6.90;99.90;;;;;;4224430;28;20510;-78
2022/10/10 06:20:35;;;;;;;5.00;2.23;;;6.90;99.90;;;;;;4223775;28;20483;-80
2022/10/10 06:22:38;;;;;;;3.57;2.33;;;6.90;99.90;;;;;;4214924;28;20960;-78
2022/10/10 06:24:40;;;;;;;4.17;2.40;;;6.90;99.90;;;;;;4219323;28;20453;-80
2022/10/10 06:26:43;;;;;;;4.13;2.10;;;6.90;99.90;;;;;;4215109;28;21340;-81
2022/10/10 06:28:45;;;;;;;3.57;2.13;;;7.00;99.90;;;;;;4219704;28;20532;-80
2022/10/10 06:30:48;;;;;;;4.53;2.53;;;7.00;99.90;;;;;;4226356;28;20478;-78
2022/10/10 06:32:50;;;;;;;5.07;2.53;;;7.00;99.90;;;;;;4216057;28;21028;-80
2022/10/10 06:34:51;;;;;;;5.10;2.60;;;7.00;99.90;;;;;;4219334;28;21317;-79
2022/10/10 06:36:53;;;;;;;3.97;2.40;;;7.00;99.90;;;;;;4226754;28;20484;-78
2022/10/10 06:38:56;;;;;;;3.90;2.23;;;7.10;99.90;;;;;;4221058;28;20572;-79
2022/10/10 06:41:02;;;;;;;5.00;2.50;;;7.10;99.90;;;;;;4219323;28;20452;-79
2022/10/10 06:43:07;;;;;;;3.80;2.37;;;7.10;99.90;;;;;;4225979;28;20821;-78
2022/10/10 06:45:11;;;;;;;4.30;2.10;;;7.10;99.90;;;;;;4223623;28;20507;-78
2022/10/10 06:47:13;;;;;;;4.23;2.47;;;7.10;99.90;;;;;;4219610;28;20456;-79
2022/10/10 06:49:15;;;;;;;5.17;2.50;;;7.40;99.90;;;;;;4220568;28;20453;-78
2022/10/10 06:51:18;;;;;;;4.07;2.23;;;7.20;99.90;;;;;;4222549;28;20479;-78
2022/10/10 06:53:19;;;;;;;5.10;2.40;;;7.20;99.90;;;;;;4223995;28;20479;-78
2022/10/10 06:55:23;;;;;;;6.83;2.60;;;7.20;99.90;;;;;;4225495;28;20515;-78
2022/10/10 06:57:25;;;;;;;4.67;2.80;;;7.30;99.90;;;;;;4216399;28;20457;-78
2022/10/10 06:59:27;;;;;;;4.40;2.83;;;7.30;99.90;;;;;;4216857;28;20485;-78
2022/10/10 07:01:29;;;;;;;5.77;2.90;;;7.30;99.90;;;;;;4222045;28;20452;-78
2022/10/10 07:03:31;;;;;;;5.67;2.60;;;7.30;99.90;;;;;;4226703;28;20456;-79
2022/10/10 07:05:33;;;;;;;5.53;3.27;;;7.30;99.90;;;;;;4223895;28;20445;-78
2022/10/10 07:07:35;;;;;;;5.53;2.47;;;7.30;99.90;;;;;;4224239;28;21257;-79
2022/10/10 07:09:37;;;;;;;5.73;2.63;;;7.40;99.90;;;;;;4233280;28;20487;-79
2022/10/10 07:11:44;;;;;;;6.67;3.00;;;7.40;99.90;;;;;;4228825;28;20489;-78
2022/10/10 07:13:46;;;;;;;5.07;2.80;;;7.70;99.90;;;;;;4232259;28;20454;-78
2022/10/10 07:15:48;;;;;;;5.87;2.60;;;7.50;99.90;;;;;;4230727;28;20468;-78
2022/10/10 07:17:57;;;;;;;4.70;2.80;;;7.40;99.90;;;;;;4225651;28;20461;-79
2022/10/10 07:19:59;;;;;;;3.73;2.37;;;7.40;99.90;;;;;;4222208;28;20469;-77
2022/10/10 07:22:01;;;;;;;6.53;3.03;;;7.50;99.90;;;;;;4220138;28;20891;-77
2022/10/10 07:24:02;;;;;;;6.77;3.40;;;7.50;99.90;;;;;;4223032;27;21116;-78
2022/10/10 07:26:07;;;;;;;4.60;2.80;;;7.50;99.90;;;;;;4221217;28;20511;-77
2022/10/10 07:28:11;;;;;;;6.63;3.70;;;7.50;99.90;;;;;;4225315;28;20495;-77
2022/10/10 07:30:13;;;;;;;5.83;3.13;;;7.60;99.90;;;;;;4220878;28;20889;-77
2022/10/10 07:32:15;;;;;;;5.67;3.00;;;7.60;99.90;;;;;;4224651;28;20495;-78
2022/10/10 07:34:17;;;;;;;4.60;2.60;;;7.60;99.90;;;;;;4224774;28;20885;-77
2022/10/10 07:36:19;;;;;;;6.23;3.20;;;7.60;99.90;;;;;;4221903;28;20461;-78
2022/10/10 07:38:21;;;;;;;7.10;3.23;;;7.60;99.90;;;;;;4225506;28;20453;-76
2022/10/10 07:40:23;;;;;;;6.90;3.10;;;7.60;99.90;;;;;;4222413;28;21038;-77
2022/10/10 07:42:25;;;;;;;6.97;3.13;;;7.70;99.90;;;;;;4225211;28;20542;-77
2022/10/10 07:44:28;;;;;;;7.60;3.10;;;7.80;99.90;;;;;;4222853;28;20468;-78
2022/10/10 07:46:32;;;;;;;8.77;3.03;;;7.70;99.90;;;;;;4219678;28;20462;-79
2022/10/10 07:48:34;;;;;;;8.63;3.73;;;7.80;99.90;;;;;;4218366;28;20489;-78
2022/10/10 07:50:35;;;;;;;6.63;3.57;;;7.80;99.90;;;;;;4221054;28;20477;-76
2022/10/10 07:52:37;;;;;;;10.03;3.43;;;7.80;99.90;;;;;;4222129;28;20478;-77
2022/10/10 07:54:39;;;;;;;12.67;3.60;;;7.80;99.90;;;;;;4224319;28;20516;-78
2022/10/10 07:56:41;;;;;;;6.97;3.20;;;7.90;99.90;;;;;;4225985;28;20456;-78
2022/10/10 07:58:43;;;;;;;8.40;3.10;;;7.90;99.90;;;;;;4219844;28;20488;-77
2022/10/10 08:00:46;;;;;;;7.10;3.30;;;8.00;99.90;;;;;;4223100;28;20509;-79
2022/10/10 08:02:49;;;;;;;13.83;3.30;;;8.00;99.90;;;;;;4228155;28;20544;-79
2022/10/10 08:04:51;;;;;;;13.23;4.00;;;8.10;99.90;;;;;;4229005;28;20777;-77
2022/10/10 08:06:53;;;;;;;8.67;3.60;;;8.20;99.90;;;;;;4220092;28;20548;-77
2022/10/10 08:08:55;;;;;;;11.80;4.00;;;8.30;99.90;;;;;;4227276;28;20544;-78
2022/10/10 08:10:57;;;;;;;13.17;4.00;;;8.40;99.90;;;;;;4219119;28;20963;-77
2022/10/10 08:12:59;;;;;;;9.03;3.27;;;8.50;99.90;;;;;;4228127;28;20450;-79
2022/10/10 08:15:01;;;;;;;9.93;3.30;;;8.60;99.90;;;;;;4231112;28;20479;-78
2022/10/10 08:17:04;;;;;;;9.17;3.40;;;8.80;99.90;;;;;;4234382;28;20463;-78
2022/10/10 08:19:06;;;;;;;7.23;3.10;;;9.00;99.90;;;;;;4234330;28;20438;-78
2022/10/10 08:21:12;;;;;;;11.57;4.10;;;9.00;99.90;;;;;;4231815;28;20482;-78
2022/10/10 08:23:14;;;;;;;11.60;4.03;;;9.30;99.90;;;;;;4225962;28;20466;-78
2022/10/10 08:25:16;;;;;;;8.07;3.27;;;9.50;99.90;;;;;;4219742;28;20451;-77
2022/10/10 08:27:19;;;;;;;8.03;3.37;;;9.60;99.90;;;;;;4217217;28;20442;-78
2022/10/10 08:29:21;;;;;;;7.40;3.50;;;9.70;99.90;;;;;;4223531;28;20901;-77
2022/10/10 08:31:23;;;;;;;6.67;3.53;;;9.80;99.90;;;;;;4221290;28;20495;-80
2022/10/10 08:33:28;;;;;;;10.20;3.17;;;9.90;99.90;;;;;;4217278;28;20197;-78
2022/10/10 08:35:30;;;;;;;5.80;2.90;;;10.10;99.90;;;;;;4214882;28;21340;-80
2022/10/10 08:37:32;;;;;;;7.27;2.93;;;10.20;99.90;;;;;;4219148;28;20201;-78
2022/10/10 08:39:34;;;;;;;9.27;2.90;;;10.30;99.90;;;;;;4221183;28;20229;-79
2022/10/10 08:41:41;;;;;;;5.33;3.00;;;10.40;99.90;;;;;;4212523;28;20205;-78
2022/10/10 08:43:49;;;;;;;8.13;2.50;;;10.50;99.90;;;;;;4220253;28;20210;-77
2022/10/10 08:45:52;;;;;;;5.77;2.70;;;10.60;99.90;;;;;;4220071;28;20224;-78
2022/10/10 08:47:58;;;;;;;9.70;3.00;;;10.70;99.90;;;;;;4215381;28;20646;-78
2022/10/10 08:50:05;;;;;;;4.30;2.50;;;10.90;99.90;;;;;;4216995;28;20695;-78
2022/10/10 08:52:15;;;;;;;7.67;2.73;;;11.00;99.90;;;;;;4221891;28;20252;-78
2022/10/10 08:54:19;;;;;;;4.30;2.30;;;11.10;99.90;;;;;;4222454;28;20222;-78
2022/10/10 08:56:26;;;;;;;9.87;3.27;;;11.20;99.90;;;;;;4216585;28;21319;-78
2022/10/10 08:58:33;;;;;;;8.17;2.80;;;11.20;99.90;;;;;;4222192;28;20484;-79
2022/10/10 09:00:41;;;;;;;8.83;2.87;;;11.40;99.90;;;;;;4217005;28;20273;-78
2022/10/10 09:02:49;;;;;;;8.50;3.07;;;11.50;99.90;;;;;;4228429;28;20218;-78
2022/10/10 09:04:51;;;;;;;7.90;2.57;;;11.60;99.90;;;;;;4227916;28;20249;-78
2022/10/10 09:07:07;;;;;;;5.77;2.70;;;11.70;99.90;;;;;;4224197;28;20286;-80
2022/10/10 09:09:18;;;;;;;6.40;3.10;;;11.80;99.90;;;;;;4219946;28;20293;-80
2022/10/10 09:11:31;;;;;;;7.20;2.67;;;12.00;99.90;;;;;;4226434;28;20788;-78
2022/10/10 09:13:36;;;;;;;7.83;2.97;;;11.90;99.90;;;;;;4226477;28;20689;-78
2022/10/10 09:15:54;;;;;;;6.97;2.80;;;12.00;99.90;;;;;;4221627;28;20225;-78
2022/10/10 09:18:03;;;;;;;7.53;2.70;;;12.10;99.90;;;;;;4229409;28;20211;-78
2022/10/10 09:20:18;;;;;;;4.23;2.70;;;12.10;99.90;;;;;;4218977;28;20231;-78
2022/10/10 09:22:25;;;;;;;6.10;2.80;;;12.20;99.90;;;;;;4223338;28;20215;-78
2022/10/10 09:24:32;;;;;;;6.10;2.97;;;12.30;99.90;;;;;;4219769;28;20665;-79
2022/10/10 09:26:37;;;;;;;7.30;2.90;;;12.40;99.90;;;;;;4222660;28;20207;-77
2022/10/10 09:28:44;;;;;;;7.07;2.37;;;12.40;99.90;;;;;;4216693;28;20254;-78
2022/10/10 09:30:52;;;;;;;4.53;2.37;;;12.50;99.90;;;;;;4220277;28;20278;-79
2022/10/10 09:32:58;;;;;;;7.17;2.40;;;12.60;99.90;;;;;;4216532;28;20203;-79
2022/10/10 09:35:06;;;;;;;7.23;2.70;;;12.70;99.90;;;;;;4212742;28;20220;-78
2022/10/10 09:37:14;;;;;;;7.17;2.80;;;12.80;99.90;;;;;;4219522;28;20649;-78
2022/10/10 09:39:24;;;;;;;6.10;2.77;;;12.90;99.90;;;;;;4219334;28;20298;-79
2022/10/10 09:41:34;;;;;;;5.83;2.30;;;13.00;99.90;;;;;;4217431;28;20208;-79
2022/10/10 09:43:39;;;;;;;5.03;2.40;;;13.00;99.90;;;;;;4218225;28;20239;-79
2022/10/10 09:45:47;;;;;;;4.87;2.60;;;13.10;99.90;;;;;;4218201;28;20640;-79
2022/10/10 09:47:53;;;;;;;5.83;2.80;;;13.20;99.90;;;;;;4222534;28;20204;-77
2022/10/10 09:49:55;;;;;;;6.20;2.57;;;13.30;99.90;;;;;;4214079;28;20275;-78
2022/10/10 09:51:58;;;;;;;4.33;2.10;;;13.30;99.90;;;;;;4215238;28;20214;-77
2022/10/10 09:54:00;;;;;;;4.47;2.57;;;13.40;99.90;;;;;;4210803;28;20228;-76
2022/10/10 09:56:05;;;;;;;6.10;2.70;;;13.40;99.90;;;;;;4218284;28;20231;-77
2022/10/10 09:58:16;;;;;;;6.80;2.67;;;13.50;99.90;;;;;;4220111;28;20216;-77
2022/10/10 10:00:28;;;;;;;4.60;2.43;;;13.50;99.90;;;;;;4226992;28;20224;-78
2022/10/10 10:02:30;;;;;;;8.37;2.70;;;13.60;99.90;;;;;;4215652;28;20247;-77
2022/10/10 10:04:33;;;;;;;11.23;2.90;;;13.70;99.90;;;;;;4220955;28;20276;-77
2022/10/10 10:06:35;;;;;;;7.50;3.10;;;13.80;99.90;;;;;;4230868;28;20212;-79
2022/10/10 10:08:37;;;;;;;5.17;2.40;;;13.80;99.90;;;;;;4222322;28;20561;-78
2022/10/10 10:10:39;;;;;;;9.20;2.80;;;13.90;99.90;;;;;;4221270;28;20310;-78
2022/10/10 10:12:44;;;;;;;6.83;2.70;;;14.00;99.90;;;;;;4224734;28;20696;-79
2022/10/10 10:14:46;;;;;;;6.43;2.57;;;14.10;99.90;;;;;;4223984;28;20654;-78
2022/10/10 10:16:48;;;;;;;11.07;3.80;;;14.20;99.90;;;;;;4222341;28;20682;-78
2022/10/10 10:18:50;;;;;;;6.70;2.40;;;14.20;99.90;;;;;;4227415;28;20667;-78
2022/10/10 10:20:54;;;;;;;7.87;3.10;;;14.20;99.90;;;;;;4227739;28;20228;-78
2022/10/10 10:22:56;;;;;;;8.40;3.00;;;14.40;99.90;;;;;;4225411;28;20205;-79
2022/10/10 10:24:58;;;;;;;8.70;2.97;;;14.40;99.90;;;;;;4221839;28;20661;-78
2022/10/10 10:27:10;;;;;;;9.27;2.87;;;14.40;99.90;;;;;;4225228;28;20323;-78
2022/10/10 10:29:30;;;;;;;8.07;3.07;;;14.60;99.90;;;;;;4224630;28;20207;-79
2022/10/10 10:31:52;;;;;;;6.40;2.80;;;14.70;99.90;;;;;;4219258;28;21068;-79
2022/10/10 10:34:06;;;;;;;7.13;3.20;;;14.70;99.90;;;;;;4224740;28;20213;-79
2022/10/10 10:36:23;;;;;;;5.43;2.67;;;14.90;99.90;;;;;;4241238;27;20344;-78
2022/10/10 10:38:36;;;;;;;10.53;3.33;;;14.90;99.90;;;;;;4220569;28;20573;-78
2022/10/10 10:40:41;;;;;;;4.37;2.83;;;15.00;99.90;;;;;;4225260;28;20240;-78
2022/10/10 10:43:04;;;;;;;10.10;3.23;;;15.00;99.90;;;;;;4216808;28;20209;-78
2022/10/10 10:45:15;;;;;;;6.90;3.07;;;15.10;99.90;;;;;;4217761;28;20210;-78
2022/10/10 10:47:34;;;;;;;6.07;2.80;;;15.20;99.90;;;;;;4199840;28;20853;-77
2022/10/10 10:49:41;;;;;;;6.23;2.90;;;15.30;99.90;;;;;;4225873;28;20232;-77
2022/10/10 10:51:59;;;;;;;6.73;3.10;;;15.40;99.90;;;;;;4222483;28;20208;-78
2022/10/10 10:54:11;;;;;;;7.37;2.90;;;15.50;99.90;;;;;;4220535;28;20294;-77